createdAt,value
2023-04-09T00:02:17.343Z,98144.06
2023-04-09T00:04:46.923Z,98112.88
2023-04-09T00:07:15.097Z,98130.34
2023-04-09T00:09:43.173Z,98073.09
2023-04-09T00:12:11.323Z,98134.66
2023-04-09T00:14:39.426Z,98133.69
2023-04-09T00:17:07.484Z,98129.44
2023-04-09T00:19:35.617Z,98126.06
2023-04-09T00:22:05.154Z,98123.47
2023-04-09T00:24:33.297Z,98124.28
2023-04-09T00:27:01.558Z,98078.28
2023-04-09T00:29:29.637Z,98124.22
2023-04-09T00:31:57.786Z,98118.19
2023-04-09T00:34:25.874Z,98078.28
2023-04-09T00:36:53.946Z,98115.56
2023-04-09T00:39:23.504Z,98124.19
2023-04-09T00:41:51.584Z,98110.28
2023-04-09T00:44:19.646Z,98116.38
2023-04-09T00:46:47.871Z,98127.50
2023-04-09T00:49:16.139Z,98117.19
2023-04-09T00:51:45.377Z,98118.00
2023-04-09T00:54:13.740Z,98118.00
2023-04-09T00:56:43.946Z,98115.47
2023-04-09T00:59:12.503Z,98112.00
2023-04-09T01:01:40.694Z,98113.78
2023-04-09T01:04:09.102Z,98118.97
2023-04-09T01:06:44.126Z,98119.06
2023-04-09T01:09:19.431Z,98079.19
2023-04-09T01:12:07.189Z,98116.44
2023-04-09T01:14:40.190Z,98111.28
2023-04-09T01:17:16.690Z,98092.22
2023-04-09T01:19:50.395Z,98120.00
2023-04-09T01:22:48.496Z,98098.38
2023-04-09T01:25:30.482Z,98110.59
2023-04-09T01:28:16.574Z,98116.69
2023-04-09T01:30:49.326Z,97997.00
2023-04-09T01:33:19.918Z,98120.22
2023-04-09T01:35:49.706Z,98121.13
2023-04-09T01:38:21.030Z,98110.78
2023-04-09T01:40:50.927Z,98112.53
2023-04-09T01:43:21.364Z,98083.97
2023-04-09T01:45:50.220Z,98108.16
2023-04-09T01:48:18.591Z,98105.50
2023-04-09T01:50:47.335Z,97998.78
2023-04-09T01:53:15.786Z,98102.81
2023-04-09T01:55:43.891Z,98105.41
2023-04-09T01:58:13.353Z,98102.00
2023-04-09T02:00:49.044Z,97951.22
2023-04-09T02:03:23.094Z,98090.84
2023-04-09T02:06:05.767Z,98096.84
2023-04-09T02:08:36.551Z,98101.13
2023-04-09T02:11:09.910Z,98095.94
2023-04-09T02:13:40.037Z,98101.13
2023-04-09T02:16:10.973Z,98108.09
2023-04-09T02:18:39.116Z,98105.50
2023-04-09T02:21:07.330Z,98097.69
2023-04-09T02:23:35.477Z,98083.84
2023-04-09T02:26:03.645Z,98084.75
2023-04-09T02:28:31.846Z,98114.22
2023-04-09T02:30:59.977Z,97694.22
2023-04-09T02:33:29.535Z,98087.38
2023-04-09T02:35:57.712Z,98097.81
2023-04-09T02:38:26.330Z,98097.81
2023-04-09T02:40:54.485Z,98094.38
2023-04-09T02:43:22.697Z,98089.09
2023-04-09T02:45:50.866Z,98093.44
2023-04-09T02:48:18.971Z,98094.28
2023-04-09T02:50:48.583Z,98095.16
2023-04-09T02:53:16.721Z,98066.56
2023-04-09T02:55:44.868Z,98083.94
2023-04-09T02:58:12.967Z,98042.28
2023-04-09T03:00:41.055Z,98069.94
2023-04-09T03:03:09.376Z,98095.94
2023-04-09T03:05:38.136Z,98077.72
2023-04-09T03:08:07.770Z,98092.47
2023-04-09T03:10:35.968Z,98068.22
2023-04-09T03:13:04.043Z,98057.91
2023-04-09T03:15:32.238Z,98071.81
2023-04-09T03:18:00.369Z,98077.03
2023-04-09T03:20:28.549Z,98082.25
2023-04-09T03:22:56.673Z,98078.78
2023-04-09T03:25:26.314Z,98077.00
2023-04-09T03:27:54.508Z,98078.72
2023-04-09T03:30:22.749Z,98080.47
2023-04-09T03:32:50.924Z,98075.31
2023-04-09T03:35:19.303Z,98053.66
2023-04-09T03:37:47.625Z,98075.34
2023-04-09T03:40:15.879Z,98074.41
2023-04-09T03:42:45.531Z,98082.19
2023-04-09T03:45:13.656Z,98075.28
2023-04-09T03:47:41.741Z,98078.69
2023-04-09T03:50:10.618Z,98074.38
2023-04-09T03:52:38.765Z,98081.31
2023-04-09T03:55:07.841Z,98077.88
2023-04-09T03:57:35.958Z,98083.97
2023-04-09T04:00:06.496Z,98080.53
2023-04-09T04:02:34.763Z,98083.09
2023-04-09T04:05:03.025Z,98066.53
2023-04-09T04:07:31.160Z,98089.00
2023-04-09T04:09:59.245Z,98091.59
2023-04-09T04:12:27.422Z,98093.28
2023-04-09T04:14:55.538Z,98089.78
2023-04-09T04:17:25.090Z,98095.88
2023-04-09T04:19:53.241Z,98096.78
2023-04-09T04:22:21.411Z,98090.81
2023-04-09T04:24:49.526Z,98089.06
2023-04-09T04:27:17.612Z,98092.50
2023-04-09T04:29:45.758Z,98102.00
2023-04-09T04:32:13.886Z,98100.34
2023-04-09T04:34:43.438Z,98100.34
2023-04-09T04:37:11.605Z,98062.06
2023-04-09T04:39:39.753Z,98108.00
2023-04-09T04:42:07.968Z,98084.56
2023-04-09T04:44:36.190Z,98073.31
2023-04-09T04:47:04.302Z,98096.78
2023-04-09T04:49:32.472Z,98110.59
2023-04-09T04:52:02.012Z,98104.59
2023-04-09T04:54:30.153Z,98087.22
2023-04-09T04:56:58.385Z,98097.72
2023-04-09T04:59:26.567Z,98106.38
2023-04-09T05:01:54.779Z,98058.75
2023-04-09T05:04:23.136Z,98102.09
2023-04-09T05:06:51.378Z,98103.88
2023-04-09T05:09:22.450Z,98085.72
2023-04-09T05:11:50.745Z,98018.06
2023-04-09T05:14:21.135Z,98106.50
2023-04-09T05:16:49.341Z,98102.22
2023-04-09T05:19:17.569Z,98108.25
2023-04-09T05:21:47.273Z,98066.59
2023-04-09T05:24:15.740Z,98115.22
2023-04-09T05:26:45.624Z,98080.56
2023-04-09T05:29:13.740Z,98118.69
2023-04-09T05:31:43.230Z,98068.41
2023-04-09T05:34:11.488Z,98113.53
2023-04-09T05:36:39.645Z,97956.63
2023-04-09T05:39:07.786Z,98125.63
2023-04-09T05:41:37.429Z,98124.75
2023-04-09T05:44:07.299Z,98120.44
2023-04-09T05:46:35.441Z,98116.09
2023-04-09T05:49:03.852Z,98097.88
2023-04-09T05:51:32.034Z,98136.88
2023-04-09T05:54:00.650Z,98116.91
2023-04-09T05:56:28.841Z,98117.78
2023-04-09T05:58:57.041Z,98133.44
2023-04-09T06:01:27.239Z,98136.91
2023-04-09T06:03:58.015Z,98140.38
2023-04-09T06:06:27.120Z,98070.13
2023-04-09T06:08:55.275Z,98124.72
2023-04-09T06:11:23.429Z,98136.91
2023-04-09T06:13:51.827Z,98123.09
2023-04-09T06:16:20.774Z,98130.06
2023-04-09T06:18:54.276Z,98138.75
2023-04-09T06:21:22.424Z,98137.88
2023-04-09T06:23:51.738Z,98139.63
2023-04-09T06:26:20.320Z,98144.00
2023-04-09T06:28:48.485Z,98145.72
2023-04-09T06:31:17.172Z,98143.13
2023-04-09T06:33:45.410Z,98098.94
2023-04-09T06:36:15.722Z,98145.72
2023-04-09T06:38:43.889Z,98150.94
2023-04-09T06:41:12.934Z,98133.59
2023-04-09T06:43:41.226Z,98087.72
2023-04-09T06:46:09.469Z,98153.56
2023-04-09T06:48:37.563Z,98156.13
2023-04-09T06:51:07.845Z,98157.00
2023-04-09T06:53:37.508Z,98157.00
2023-04-09T06:56:06.477Z,98134.41
2023-04-09T06:58:34.762Z,98158.72
2023-04-09T07:01:02.996Z,98165.59
2023-04-09T07:03:31.583Z,98176.88
2023-04-09T07:06:00.194Z,98169.03
2023-04-09T07:08:28.805Z,98177.72
2023-04-09T07:10:58.323Z,98179.41
2023-04-09T07:15:59.544Z,98154.25
2023-04-09T07:18:28.006Z,98176.81
2023-04-09T07:20:56.299Z,98178.50
2023-04-09T07:23:24.496Z,98182.00
2023-04-09T07:25:52.651Z,98187.22
2023-04-09T07:28:22.407Z,98105.75
2023-04-09T07:30:50.676Z,98168.16
2023-04-09T07:33:18.853Z,98187.22
2023-04-09T07:35:47.069Z,98138.72
2023-04-09T07:38:15.328Z,98195.09
2023-04-09T07:40:43.600Z,98198.53
2023-04-09T07:43:11.816Z,98179.47
2023-04-09T07:45:41.538Z,98196.88
2023-04-09T07:48:10.110Z,98196.00
2023-04-09T07:50:38.310Z,98181.25
2023-04-09T07:53:06.406Z,97808.91
2023-04-09T07:55:34.621Z,98166.56
2023-04-09T07:58:06.031Z,98205.59
2023-04-09T08:00:34.405Z,98206.50
2023-04-09T08:03:04.296Z,98202.16
2023-04-09T08:05:32.552Z,98199.53
2023-04-09T08:08:00.777Z,98154.50
2023-04-09T08:10:28.995Z,98206.44
2023-04-09T08:12:57.226Z,98200.34
2023-04-09T08:15:25.730Z,98266.28
2023-04-09T08:17:53.967Z,98204.63
2023-04-09T08:20:23.819Z,98208.94
2023-04-09T08:22:52.028Z,98212.41
2023-04-09T08:25:20.537Z,98155.19
2023-04-09T08:27:48.677Z,98214.09
2023-04-09T08:30:18.790Z,98218.47
2023-04-09T08:32:47.558Z,98186.38
2023-04-09T08:35:16.045Z,98195.00
2023-04-09T08:37:45.739Z,98218.41
2023-04-09T08:40:14.312Z,98214.94
2023-04-09T08:42:46.534Z,98221.94
2023-04-09T08:45:14.967Z,98229.75
2023-04-09T08:47:44.991Z,98221.97
2023-04-09T08:50:13.252Z,98236.75
2023-04-09T08:52:42.141Z,98215.09
2023-04-09T08:55:13.330Z,98234.19
2023-04-09T08:57:42.189Z,98222.94
2023-04-09T09:00:11.289Z,98138.00
2023-04-09T09:02:40.551Z,98227.28
2023-04-09T09:05:09.333Z,98240.25
2023-04-09T09:07:37.615Z,98236.81
2023-04-09T09:10:06.659Z,98243.69
2023-04-09T09:12:38.715Z,98245.41
2023-04-09T09:15:26.238Z,98217.63
2023-04-09T09:17:57.138Z,98233.22
2023-04-09T09:20:26.688Z,98241.88
2023-04-09T09:22:56.768Z,98197.69
2023-04-09T09:25:26.437Z,98231.50
2023-04-09T09:27:56.435Z,98249.72
2023-04-09T09:30:26.736Z,98246.28
2023-04-09T09:32:55.699Z,98116.31
2023-04-09T09:35:25.032Z,98254.09
2023-04-09T09:38:04.744Z,98253.25
2023-04-09T09:40:33.073Z,98254.13
2023-04-09T09:43:02.696Z,98256.72
2023-04-09T09:45:31.537Z,98256.75
2023-04-09T09:47:59.689Z,98246.34
2023-04-09T09:50:31.965Z,98260.22
2023-04-09T09:53:04.927Z,98268.94
2023-04-09T09:55:33.730Z,98244.63
2023-04-09T09:58:12.125Z,98143.19
2023-04-09T10:00:41.802Z,98271.53
2023-04-09T10:03:16.061Z,98189.13
2023-04-09T10:05:46.085Z,98258.50
2023-04-09T10:08:14.557Z,98259.34
2023-04-09T10:10:43.804Z,98192.50
2023-04-09T10:13:17.985Z,98233.03
2023-04-09T10:15:47.029Z,98256.28
2023-04-09T10:18:17.023Z,98216.31
2023-04-09T10:20:50.975Z,98211.78
2023-04-09T10:23:28.637Z,98242.03
2023-04-09T10:25:56.804Z,98222.88
2023-04-09T10:28:26.429Z,98243.63
2023-04-09T10:30:55.593Z,98230.50
2023-04-09T10:33:26.964Z,98242.78
2023-04-09T10:35:55.845Z,98244.50
2023-04-09T10:38:38.038Z,98240.38
2023-04-09T10:41:15.422Z,98225.56
2023-04-09T10:43:45.180Z,98200.44
2023-04-09T10:46:30.775Z,98213.34
2023-04-09T10:49:18.261Z,98218.34
2023-04-09T10:51:54.048Z,98225.38
2023-04-09T10:54:44.100Z,98200.09
2023-04-09T10:57:22.708Z,98203.28
2023-04-09T10:59:53.841Z,98216.16
2023-04-09T11:02:57.930Z,98210.03
2023-04-09T11:05:38.248Z,98208.25
2023-04-09T11:08:09.643Z,98206.34
2023-04-09T11:10:39.006Z,98214.16
2023-04-09T11:13:07.354Z,98057.75
2023-04-09T11:15:38.028Z,98045.78
2023-04-09T11:18:07.188Z,98208.88
2023-04-09T11:20:35.965Z,98171.75
2023-04-09T11:23:04.416Z,98149.50
2023-04-09T11:25:35.152Z,98197.00
2023-04-09T11:28:06.197Z,98197.03
2023-04-09T11:30:35.869Z,98181.31
2023-04-09T11:33:05.605Z,98196.78
2023-04-09T11:35:35.859Z,98188.84
2023-04-09T11:38:07.891Z,98198.28
2023-04-09T11:40:36.647Z,98193.91
2023-04-09T11:43:04.844Z,98193.09
2023-04-09T11:45:33.898Z,98199.13
2023-04-09T11:48:03.962Z,98197.06
2023-04-09T11:50:33.763Z,98187.78
2023-04-09T11:53:01.934Z,98191.25
2023-04-09T11:55:31.124Z,98171.84
2023-04-09T11:58:01.785Z,98175.59
2023-04-09T12:00:30.680Z,98194.00
2023-04-09T12:03:04.400Z,98185.13
2023-04-09T12:05:35.938Z,98170.16
2023-04-09T12:08:05.915Z,98190.56
2023-04-09T12:10:35.891Z,98184.56
2023-04-09T12:13:05.181Z,98186.09
2023-04-09T12:15:34.886Z,98167.06
2023-04-09T12:18:03.678Z,98145.44
2023-04-09T12:20:35.384Z,98171.63
2023-04-09T12:23:05.826Z,98171.47
2023-04-09T12:25:35.621Z,98123.81
2023-04-09T12:28:04.505Z,98123.06
2023-04-09T12:30:33.276Z,98163.69
2023-04-09T12:33:01.798Z,98164.38
2023-04-09T12:35:30.008Z,98160.50
2023-04-09T12:38:00.778Z,98154.00
2023-04-09T12:40:29.280Z,98164.28
2023-04-09T12:42:57.530Z,98158.34
2023-04-09T12:45:25.665Z,98166.31
2023-04-09T12:47:53.935Z,98091.38
2023-04-09T12:50:22.189Z,98151.09
2023-04-09T12:52:50.474Z,98164.31
2023-04-09T12:55:20.046Z,98187.13
2023-04-09T12:57:51.437Z,98177.13
2023-04-09T13:00:19.624Z,98180.97
2023-04-09T13:02:47.957Z,98146.00
2023-04-09T13:05:16.181Z,98183.44
2023-04-09T13:07:44.677Z,98196.72
2023-04-09T13:10:12.836Z,98181.38
2023-04-09T13:12:42.386Z,98206.78
2023-04-09T13:15:11.884Z,98216.03
2023-04-09T13:17:40.110Z,98213.88
2023-04-09T13:20:09.543Z,98210.63
2023-04-09T13:22:37.741Z,98206.44
2023-04-09T13:25:06.488Z,98219.44
2023-04-09T13:27:34.812Z,98217.72
2023-04-09T13:30:04.747Z,98224.66
2023-04-09T13:32:32.993Z,98197.75
2023-04-09T13:35:01.168Z,98214.22
2023-04-09T13:37:29.265Z,98215.09
2023-04-09T13:39:57.515Z,98163.13
2023-04-09T13:42:25.913Z,98213.31
2023-04-09T13:44:54.132Z,98205.41
2023-04-09T13:47:23.978Z,98182.84
2023-04-09T13:49:53.303Z,98172.31
2023-04-09T13:52:21.483Z,98205.25
2023-04-09T13:54:49.611Z,98210.41
2023-04-09T13:57:18.270Z,98206.03
2023-04-09T13:59:46.609Z,98206.88
2023-04-09T14:02:15.030Z,98191.31
2023-04-09T14:04:44.853Z,98217.25
2023-04-09T14:07:13.058Z,98210.22
2023-04-09T14:09:41.299Z,98211.03
2023-04-09T14:12:09.570Z,98216.25
2023-04-09T14:14:37.979Z,98220.63
2023-04-09T14:17:06.265Z,98194.63
2023-04-09T14:19:34.468Z,98212.75
2023-04-09T14:22:04.498Z,98195.44
2023-04-09T14:24:34.618Z,98201.50
2023-04-09T14:27:02.979Z,98210.25
2023-04-09T14:29:32.118Z,98202.59
2023-04-09T14:32:01.024Z,98095.16
2023-04-09T14:34:30.798Z,98217.16
2023-04-09T14:36:59.078Z,98169.53
2023-04-09T14:39:28.749Z,98204.22
2023-04-09T14:41:57.477Z,98204.28
2023-04-09T14:44:26.696Z,98199.09
2023-04-09T14:46:56.300Z,98195.66
2023-04-09T14:49:24.781Z,98201.78
2023-04-09T14:51:53.017Z,98175.78
2023-04-09T14:54:21.414Z,98203.44
2023-04-09T14:56:51.294Z,98205.13
2023-04-09T14:59:19.595Z,98202.50
2023-04-09T15:01:47.843Z,98207.69
2023-04-09T15:04:16.387Z,98212.09
2023-04-09T15:06:45.413Z,98204.28
2023-04-09T15:09:14.261Z,98199.09
2023-04-09T15:11:42.499Z,98208.59
2023-04-09T15:14:12.160Z,98200.78
2023-04-09T15:16:40.500Z,98212.94
2023-04-09T15:19:08.863Z,98206.84
2023-04-09T15:21:37.121Z,98214.56
2023-04-09T15:24:05.589Z,98217.06
2023-04-09T15:26:35.627Z,98215.19
2023-04-09T15:29:07.982Z,98217.66
2023-04-09T15:31:40.110Z,98221.00
2023-04-09T15:34:09.612Z,98214.75
2023-04-09T15:36:37.554Z,98211.25
2023-04-09T15:39:05.903Z,98215.66
2023-04-09T15:41:34.094Z,98214.91
2023-04-09T15:44:02.458Z,98217.72
2023-04-09T15:46:30.666Z,98161.63
2023-04-09T15:49:01.822Z,98220.63
2023-04-09T15:51:30.199Z,98232.00
2023-04-09T15:53:58.639Z,98220.81
2023-04-09T15:56:26.933Z,98221.72
2023-04-09T15:58:55.352Z,98218.31
2023-04-09T16:01:23.710Z,98221.75
2023-04-09T16:03:52.246Z,98184.53
2023-04-09T16:06:22.138Z,98204.41
2023-04-09T16:08:51.403Z,98221.69
2023-04-09T16:11:19.935Z,98215.63
2023-04-09T16:13:48.303Z,98205.22
2023-04-09T16:16:16.555Z,98181.00
2023-04-09T16:18:44.892Z,98218.28
2023-04-09T16:21:13.123Z,98217.47
2023-04-09T16:23:42.804Z,98221.00
2023-04-09T16:26:12.058Z,98158.66
2023-04-09T16:28:40.547Z,98214.97
2023-04-09T16:31:09.033Z,98216.72
2023-04-09T16:33:37.206Z,98221.88
2023-04-09T16:36:05.896Z,98123.19
2023-04-09T16:38:34.227Z,98129.22
2023-04-09T16:41:03.922Z,98214.09
2023-04-09T16:43:32.124Z,98224.50
2023-04-09T16:46:00.499Z,98234.00
2023-04-09T16:48:28.855Z,98234.03
2023-04-09T16:50:57.078Z,98179.44
2023-04-09T16:53:25.312Z,98215.00
2023-04-09T16:55:53.681Z,98238.44
2023-04-09T16:58:23.491Z,98231.50
2023-04-09T17:00:52.202Z,98238.41
2023-04-09T17:03:20.638Z,98237.56
2023-04-09T17:05:49.647Z,98241.09
2023-04-09T17:08:18.264Z,98233.31
2023-04-09T17:10:46.574Z,98240.25
2023-04-09T17:13:14.892Z,98241.13
2023-04-09T17:15:44.601Z,98211.69
2023-04-09T17:18:12.926Z,98128.44
2023-04-09T17:20:41.218Z,98214.28
2023-04-09T17:23:09.578Z,98162.25
2023-04-09T17:25:37.818Z,98221.22
2023-04-09T17:28:06.245Z,98244.63
2023-04-09T17:30:34.921Z,98193.50
2023-04-09T17:33:04.831Z,98255.06
2023-04-09T17:35:33.279Z,98232.47
2023-04-09T17:38:01.920Z,98073.81
2023-04-09T17:40:30.621Z,98240.28
2023-04-09T17:42:58.920Z,98263.69
2023-04-09T17:45:27.232Z,98262.78
2023-04-09T17:47:55.606Z,98266.28
2023-04-09T17:50:25.583Z,98266.25
2023-04-09T17:52:53.810Z,98268.88
2023-04-09T17:55:23.556Z,98271.47
2023-04-09T17:57:51.909Z,98268.88
2023-04-09T18:00:20.233Z,98259.31
2023-04-09T18:02:49.026Z,98275.81
2023-04-09T18:05:17.951Z,98272.31
2023-04-09T18:07:47.666Z,98277.53
2023-04-09T18:10:16.268Z,98143.94
2023-04-09T18:12:44.549Z,98156.06
2023-04-09T18:15:13.270Z,98156.06
2023-04-09T18:17:41.563Z,98284.47
2023-04-09T18:20:12.816Z,98290.50
2023-04-09T18:22:41.342Z,98268.81
2023-04-09T18:25:12.010Z,98286.19
2023-04-09T18:27:40.239Z,98211.53
2023-04-09T18:30:09.618Z,98281.00
2023-04-09T18:32:38.256Z,98294.84
2023-04-09T18:35:07.566Z,98275.72
2023-04-09T18:37:35.765Z,98275.69
2023-04-09T18:40:04.261Z,98297.41
2023-04-09T18:42:34.018Z,98291.34
2023-04-09T18:45:02.264Z,98291.31
2023-04-09T18:47:30.558Z,98303.41
2023-04-09T18:49:59.114Z,98295.59
2023-04-09T18:52:27.419Z,98228.75
2023-04-09T18:54:55.682Z,98299.06
2023-04-09T18:57:23.925Z,98302.53
2023-04-09T18:59:53.934Z,98295.56
2023-04-09T19:02:22.457Z,98274.78
2023-04-09T19:04:50.942Z,98194.06
2023-04-09T19:07:20.610Z,98285.19
2023-04-09T19:09:48.847Z,98311.25
2023-04-09T19:12:17.453Z,98253.91
2023-04-09T19:14:45.736Z,98315.53
2023-04-09T19:17:15.441Z,98317.28
2023-04-09T19:19:43.683Z,98312.97
2023-04-09T19:22:11.895Z,98319.03
2023-04-09T19:24:40.237Z,98313.84
2023-04-09T19:27:10.097Z,98319.94
2023-04-09T19:29:38.435Z,98294.72
2023-04-09T19:32:09.363Z,98323.38
2023-04-09T19:34:39.202Z,98316.44
2023-04-09T19:37:07.520Z,98326.84
2023-04-09T19:39:35.964Z,98321.63
2023-04-09T19:42:04.374Z,98321.66
2023-04-09T19:44:32.682Z,98320.78
2023-04-09T19:47:01.023Z,98317.31
2023-04-09T19:49:29.468Z,98186.28
2023-04-09T19:51:59.373Z,98320.81
2023-04-09T19:54:27.640Z,98314.78
2023-04-09T19:56:56.247Z,98313.00
2023-04-09T19:59:24.622Z,98317.31
2023-04-09T20:01:52.991Z,98221.00
2023-04-09T20:04:24.700Z,98272.97
2023-04-09T20:06:52.970Z,98303.47
2023-04-09T20:09:26.000Z,98317.34
2023-04-09T20:11:54.440Z,98322.50
2023-04-09T20:14:22.964Z,98315.63
2023-04-09T20:16:51.242Z,98280.03
2023-04-09T20:19:19.914Z,98322.56
2023-04-09T20:21:49.132Z,98314.75
2023-04-09T20:24:17.789Z,98313.03
2023-04-09T20:26:47.831Z,98311.28
2023-04-09T20:29:16.211Z,98283.50
2023-04-09T20:31:44.739Z,98295.66
2023-04-09T20:34:13.108Z,98307.81
2023-04-09T20:36:44.000Z,98324.31
2023-04-09T20:39:12.581Z,98323.44
2023-04-09T20:41:40.865Z,98136.88
2023-04-09T20:44:10.989Z,98326.94
2023-04-09T20:46:39.225Z,98323.47
2023-04-09T20:49:07.478Z,98311.34
2023-04-09T20:51:36.148Z,98292.22
2023-04-09T20:54:04.519Z,98323.47
2023-04-09T20:56:32.788Z,98322.59
2023-04-09T20:59:01.577Z,98300.94
2023-04-09T21:01:32.447Z,98330.41
2023-04-09T21:04:00.889Z,98303.53
2023-04-09T21:06:29.327Z,98316.53
2023-04-09T21:08:58.694Z,98302.59
2023-04-09T21:11:28.117Z,98321.72
2023-04-09T21:13:56.484Z,98326.09
2023-04-09T21:16:26.188Z,98333.03
2023-04-09T21:18:56.183Z,98332.16
2023-04-09T21:21:27.508Z,98332.13
2023-04-09T21:23:55.781Z,98328.63
2023-04-09T21:26:25.147Z,98328.63
2023-04-09T21:28:53.557Z,98332.16
2023-04-09T21:31:22.641Z,98328.66
2023-04-09T21:33:51.117Z,98326.84
2023-04-09T21:36:20.927Z,98201.00
2023-04-09T21:38:49.247Z,98321.59
2023-04-09T21:41:17.627Z,98323.31
2023-04-09T21:43:46.000Z,98323.31
2023-04-09T21:46:14.334Z,98329.38
2023-04-09T21:48:43.018Z,98330.25
2023-04-09T21:51:11.880Z,98331.03
2023-04-09T21:53:41.633Z,98332.75
2023-04-09T21:56:10.299Z,98272.84
2023-04-09T21:58:38.541Z,98218.22
2023-04-09T22:01:15.842Z,98299.81
2023-04-09T22:03:50.833Z,98334.53
2023-04-09T22:06:19.543Z,98336.31
2023-04-09T22:08:56.394Z,98343.22
2023-04-09T22:11:26.060Z,98344.09
2023-04-09T22:13:54.302Z,98285.06
2023-04-09T22:16:22.595Z,98348.47
2023-04-09T22:18:51.740Z,98354.53
2023-04-09T22:21:20.272Z,98349.31
2023-04-09T22:23:49.925Z,98338.84
2023-04-09T22:26:18.037Z,98357.94
2023-04-09T22:28:46.526Z,98353.59
2023-04-09T22:31:14.962Z,98348.44
2023-04-09T22:33:43.180Z,98351.84
2023-04-09T22:36:11.448Z,98357.03
2023-04-09T22:38:39.666Z,98357.94
2023-04-09T22:41:09.405Z,98360.53
2023-04-09T22:43:37.787Z,98360.53
2023-04-09T22:46:06.385Z,98357.94
2023-04-09T22:48:38.240Z,98334.50
2023-04-09T22:51:12.856Z,98337.13
2023-04-09T22:53:41.286Z,98323.28
2023-04-09T22:56:11.266Z,98351.03
2023-04-09T22:58:39.709Z,98358.81
2023-04-09T23:01:08.681Z,98294.56
2023-04-09T23:03:36.982Z,98335.38
2023-04-09T23:06:05.524Z,98353.66
2023-04-09T23:08:33.881Z,98348.44
2023-04-09T23:11:02.072Z,98355.38
2023-04-09T23:13:31.868Z,98355.41
2023-04-09T23:16:00.188Z,98362.34
2023-04-09T23:18:28.473Z,98357.16
2023-04-09T23:20:56.615Z,98362.34
2023-04-09T23:23:24.971Z,98356.28
2023-04-09T23:25:53.144Z,98355.38
2023-04-09T23:28:21.371Z,98355.34
2023-04-09T23:30:51.265Z,98359.69
2023-04-09T23:33:19.547Z,98352.78
2023-04-09T23:35:47.965Z,98352.75
2023-04-09T23:38:16.451Z,98331.91
2023-04-09T23:40:44.772Z,98291.97
2023-04-09T23:43:12.928Z,98363.03
2023-04-09T23:45:41.279Z,98330.19
2023-04-09T23:48:12.936Z,98356.25
2023-04-09T23:50:42.226Z,98292.88
2023-04-09T23:53:11.115Z,98356.31
2023-04-09T23:55:41.513Z,98355.44
2023-04-09T23:58:10.271Z,98354.53
